Flight Track Log - Related Links

Times and Time Zones

All times are in EDT time to prevent confusion due to time zone crossing. See the DAL6241 flight status page for this flight to view local times or setup timezone preferences in your user account.

Time Position Orientation Groundspeed Altitude Reporting Facility
EDT Latitude Longitude Course Direction KTS MPH feet Rate Location/Type
Sun 07:44:26 PM 40.7333 -73.8167 246° West 207 238 3,500  Level New York TRACON
Sun 07:45:26 PM 40.7833 -73.8000 14° North 250 288 6,500 2,650 Climbing New York TRACON
Sun 07:46:26 PM 40.8000 -73.8833 285° West 274 315 8,800 1,785 Climbing New York TRACON
Sun 07:47:27 PM 40.8000 -74.0000 270° West 276 318 10,100 1,785 Climbing New York TRACON
Sun 07:48:27 PM 40.7833 -74.1000 258° West 301 346 12,400 2,200 Climbing New York TRACON
Sun 07:49:00 PM 40.5609 -74.4842 246° West  Level FlightAware Approximate
Sun 07:49:27 PM 40.7500 -74.2167 249° West 365 420 14,500  Level New York TRACON
Sun 07:51:41 PM 40.6350 -74.4656 239° Southwest 369 425 17,500 1,569 Climbing New York Center
Sun 07:52:42 PM 40.5878 -74.5778 241° Southwest 369 425 19,600 2,132 Climbing New York Center
Sun 07:53:42 PM 40.5381 -74.6925 240° Southwest 364 419 21,800 1,934 Climbing New York Center
Sun 07:54:43 PM 40.4825 -74.7983 235° Southwest 364 419 23,500 1,831 Climbing New York Center
Sun 07:55:40 PM 40.4206 -74.9039 232° Southwest 370 426 25,400 1,729 Climbing New York Center
Sun 07:56:41 PM 40.3564 -75.0061 231° Southwest 370 426 26,900 1,289 Climbing New York Center
Sun 07:57:41 PM 40.2919 -75.1139 232° Southwest 370 426 28,000 555 Climbing New York Center
Sun 07:58:40 PM 40.2275 -75.2214 232° Southwest 381 438 28,000  Level New York Center
Sun 07:59:41 PM 40.1631 -75.3286 232° Southwest 381 438 28,000  Level New York Center
Sun 08:00:42 PM 40.0989 -75.4247 229° Southwest 381 438 28,000  Level New York Center
Sun 08:01:40 PM 40.0283 -75.5231 227° Southwest 381 438 28,000  Level New York Center
Sun 08:02:41 PM 39.9553 -75.6236 227° Southwest 381 438 28,000  Level New York Center
Sun 08:03:41 PM 39.8864 -75.7272 229° Southwest 381 438 28,000  Level New York Center
Sun 08:04:42 PM 39.8214 -75.8306 231° Southwest 376 433 28,000  Level New York Center
Sun 08:05:43 PM 39.7522 -75.9392 230° Southwest 376 433 28,000 -305 Level New York Center
Sun 08:06:40 PM 39.6892 -76.0450 232° Southwest 381 438 27,400 -1,282 Descending New York Center
Sun 08:07:40 PM 39.6200 -76.1450 228° Southwest 381 438 25,500 -1,875 Descending New York Center
Sun 08:08:00 PM 39.5869 -76.2028 233° Southwest 382 440 24,900 -1,630 Descending Washington Center
Sun 08:09:01 PM 39.5283 -76.2883 228° Southwest 359 413 23,300 -1,450 Descending Washington Center
Sun 08:10:00 PM 39.4672 -76.3844 231° Southwest 353 406 22,000 -655 Descending Washington Center
Sun 08:11:00 PM 39.4039 -76.4833 230° Southwest 353 406 22,000  Level Washington Center
Sun 08:12:00 PM 39.3367 -76.5817 229° Southwest 365 420 22,000  Level Washington Center
Sun 08:13:01 PM 39.2731 -76.6828 231° Southwest 365 420 22,000  Level Washington Center
Sun 08:14:02 PM 39.2097 -76.7808 230° Southwest 365 420 22,000  Level Washington Center
Sun 08:15:02 PM 39.1461 -76.8789 230° Southwest 365 420 22,000  Level Washington Center
Sun 08:16:02 PM 39.0889 -76.9717 232° Southwest 359 413 22,000  Level Washington Center
Sun 08:17:00 PM 39.0294 -77.0667 231° Southwest 352 405 22,000  Level Washington Center
Sun 08:18:01 PM 38.9697 -77.1614 231° Southwest 346 398 22,000 -372 Level Washington Center
Sun 08:19:09 PM 38.9000 -77.2667 230° Southwest 356 410 21,200 -984 Descending Potomac TRACON
Sun 08:20:09 PM 38.8333 -77.3667 229° Southwest 342 394 19,900 -1,300 Descending Potomac TRACON
Sun 08:21:09 PM 38.7833 -77.4667 237° Southwest 327 376 18,600 -1,000 Descending Potomac TRACON
Sun 08:22:09 PM 38.7167 -77.5500 224° Southwest 341 392 17,900 -1,050 Descending Potomac TRACON
Sun 08:23:09 PM 38.6667 -77.6500 237° Southwest 333 383 16,500 -1,434 Descending Potomac TRACON
Sun 08:24:02 PM 38.6217 -77.7122 227° Southwest 341 392 15,200 -1,817 Descending Washington Center
Sun 08:26:04 PM 38.5000 -77.8833 228° Southwest 280 322 11,200 -1,879 Descending Potomac TRACON
Sun 08:27:04 PM 38.4667 -77.9667 243° Southwest 267 307 9,500 -1,100 Descending Potomac TRACON
Sun 08:28:04 PM 38.4167 -78.0333 226° Southwest 258 297 9,000 -263 Descending Potomac TRACON
Sun 08:28:58 PM 38.3667 -78.1000 226° Southwest 248 285 9,000 -400 Level Potomac TRACON
Sun 08:30:04 PM 38.3333 -78.1667 238° Southwest 245 282 8,200 -1,238 Descending Potomac TRACON
Sun 08:31:04 PM 38.2833 -78.2333 226° Southwest 225 259 6,400 -1,900 Descending Potomac TRACON
Sun 08:32:04 PM 38.2500 -78.2833 230° Southwest 220 253 4,400 -1,700 Descending Potomac TRACON
Sun 08:33:04 PM 38.2333 -78.3500 252° West 178 205 3,000 -1,100 Descending Potomac TRACON
Sun 08:34:04 PM 38.2333 -78.4000 270° West 136 157 2,200 -750 Descending Potomac TRACON
Sun 08:35:04 PM 38.2000 -78.4167 201° Southwest 129 148 1,500 -645 Descending Potomac TRACON
Sun 08:36:05 PM 38.1667 -78.4333 201° Southwest 132 152 900 -590 Descending Potomac TRACON
Sun 08:38:00 PM 38.1333 -78.4500 218° Southwest  Level FlightAware Approximate
Sun 08:45:00 PM 38.1386 -78.4529 218° Southwest  Level Estimated
Sun 08:46:00 PM 38.1333 -78.4500 218° Southwest  Level FlightAware Approximate
Sun 08:47:00 PM 38.1386 -78.4529 218° Southwest  Level Estimated
Sun 08:48:00 PM 38.1333 -78.4500 218° Southwest  Level FlightAware Approximate
Sun 08:49:00 PM 38.1386 -78.4529 218° Southwest  Level Estimated
Sun 08:50:00 PM 38.1333 -78.4500 218° Southwest  Level FlightAware Approximate
Sun 08:51:00 PM 38.1386 -78.4529 218° Southwest  Level Estimated

Login

Don't have an account? Register now (free) for customized features, flight alerts, and more!